Time;durP1;ratioP1;P1;durP2;ratioP2;P2;SDS_P1;SDS_P2;PMS_P1;PMS_P2;Temp;Humidity;BMP_temperature;BMP_pressure;BME280_temperature;BME280_humidity;BME280_pressure;Samples;Min_cycle;Max_cycle;Signal;HPM_P1;HPM_P2
2022/03/20 00:01:18;;;;;;;21.70;8.60;;;;;;;-0.49;86.00;102656.64;1773592;80;21898;-58
2022/03/20 00:03:45;;;;;;;11.68;7.87;;;;;;;-0.51;86.10;102659.53;1761840;80;21235;-58
2022/03/20 00:06:12;;;;;;;15.93;8.80;;;;;;;-0.52;86.12;102655.22;1770506;79;21025;-58
2022/03/20 00:08:38;;;;;;;19.75;8.70;;;;;;;-0.50;86.27;102661.31;1768258;80;20985;-58
2022/03/20 00:11:05;;;;;;;13.00;7.90;;;;;;;-0.50;86.27;102659.61;1778755;80;21530;-58
2022/03/20 00:13:31;;;;;;;13.77;8.60;;;;;;;-0.49;86.23;102660.48;1774028;80;21062;-58
2022/03/20 00:15:59;;;;;;;12.40;8.43;;;;;;;-0.54;86.10;102657.70;1770541;80;21025;-58
2022/03/20 00:18:26;;;;;;;10.95;8.03;;;;;;;-0.58;86.13;102653.25;1706798;82;20969;-58
2022/03/20 00:20:55;;;;;;;;;;;;;;;-0.56;86.31;102658.44;1770163;80;20947;-58
2022/03/20 00:23:24;;;;;;;7.87;5.50;;;;;;;-0.52;86.42;102661.22;1764644;79;20451;-58
2022/03/20 00:25:53;;;;;;;8.05;6.10;;;;;;;-0.51;86.24;102655.68;1760226;80;21719;-58
2022/03/20 00:28:25;;;;;;;7.67;5.92;;;;;;;-0.55;86.17;102657.65;1783365;80;20997;-58
2022/03/20 00:30:53;;;;;;;9.08;6.08;;;;;;;-0.58;86.21;102653.66;1778406;80;21466;-58
2022/03/20 00:33:19;;;;;;;9.30;6.92;;;;;;;-0.57;86.30;102656.69;1747308;81;21029;-58
2022/03/20 00:35:46;;;;;;;16.90;6.90;;;;;;;-0.58;86.34;102654.95;1738410;81;21093;-58
2022/03/20 00:38:13;;;;;;;11.30;7.05;;;;;;;-0.59;86.36;102650.60;1735389;82;21783;-58
2022/03/20 00:40:40;;;;;;;11.33;8.38;;;;;;;-0.63;86.37;102649.59;1742704;81;20926;-58
2022/03/20 00:43:08;;;;;;;13.22;8.93;;;;;;;-0.63;86.40;102646.16;1740846;82;20954;-58
2022/03/20 00:45:35;;;;;;;13.68;7.95;;;;;;;-0.66;86.40;102642.17;1722329;82;28285;-58
2022/03/20 00:48:03;;;;;;;14.18;7.90;;;;;;;-0.68;86.47;102641.67;1725479;81;20946;-58
2022/03/20 00:50:30;;;;;;;11.93;8.25;;;;;;;-0.68;86.54;102644.24;1759675;80;21910;-58
2022/03/20 00:52:57;;;;;;;12.40;9.85;;;;;;;-0.66;86.64;102645.61;1754466;80;21045;-58
2022/03/20 00:55:24;;;;;;;;;;;;;;;-0.66;86.67;102642.17;1788996;80;21050;-58
2022/03/20 00:57:50;;;;;;;13.08;10.35;;;;;;;-0.68;86.65;102633.98;1767314;80;20301;-58
2022/03/20 01:00:17;;;;;;;13.70;9.10;;;;;;;-0.71;86.75;102636.41;1767259;80;20911;-58
2022/03/20 01:02:46;;;;;;;13.17;10.20;;;;;;;-0.72;86.83;102642.36;1762797;80;22450;-58
2022/03/20 01:05:14;;;;;;;12.05;9.95;;;;;;;-0.74;86.86;102641.41;1755936;80;21185;-58
2022/03/20 01:07:42;;;;;;;15.40;10.53;;;;;;;-0.72;86.92;102642.36;1767775;80;20950;-58
2022/03/20 01:10:11;;;;;;;13.88;10.53;;;;;;;-0.73;86.84;102643.19;1778882;80;21558;-58
2022/03/20 01:12:39;;;;;;;14.47;10.50;;;;;;;-0.75;86.89;102642.22;1770110;80;20978;-59
2022/03/20 01:15:10;;;;;;;21.68;11.90;;;;;;;-0.80;86.98;102633.43;1783548;80;22063;-58
2022/03/20 01:17:38;;;;;;;16.07;10.63;;;;;;;-0.82;87.03;102629.91;1781801;79;21539;-58
2022/03/20 01:20:08;;;;;;;16.67;11.57;;;;;;;-0.82;87.07;102642.73;1778225;80;21045;-58
2022/03/20 01:22:36;;;;;;;16.07;10.25;;;;;;;-0.85;87.02;102637.47;1775800;80;21743;-58
2022/03/20 01:25:04;;;;;;;21.37;11.93;;;;;;;-0.87;87.07;102636.51;1763917;80;21550;-58
2022/03/20 01:27:31;;;;;;;14.68;10.78;;;;;;;-0.87;87.19;102636.51;1775638;80;21063;-58
2022/03/20 01:29:58;;;;;;;15.43;11.10;;;;;;;-1.03;87.27;102618.68;1784518;80;20946;-59
2022/03/20 01:32:28;;;;;;;17.70;11.97;;;;;;;-1.03;87.27;102618.68;1763917;79;21617;-58
2022/03/20 01:34:55;;;;;;;15.03;11.85;;;;;;;-0.96;87.24;102636.09;1779709;80;21427;-58
2022/03/20 01:37:22;;;;;;;23.42;12.15;;;;;;;-0.98;87.25;102627.44;1770247;80;20978;-58
2022/03/20 01:39:49;;;;;;;15.55;12.30;;;;;;;-1.00;87.17;102622.67;1746636;80;21523;-58
2022/03/20 01:42:15;;;;;;;21.30;12.88;;;;;;;-1.02;87.17;102633.25;1758410;81;21017;-58
2022/03/20 01:44:42;;;;;;;18.85;13.00;;;;;;;-1.03;87.13;102631.50;1777527;80;21618;-58
2022/03/20 01:47:09;;;;;;;16.77;12.33;;;;;;;-1.06;87.11;102633.92;1745923;80;21333;-58
2022/03/20 01:49:36;;;;;;;15.93;11.93;;;;;;;-1.10;87.12;102629.45;1763693;79;20969;-58
2022/03/20 01:52:10;;;;;;;15.38;11.43;;;;;;;-1.16;87.16;102630.91;1765947;80;21320;-58
2022/03/20 01:54:40;;;;;;;21.50;12.73;;;;;;;-1.21;87.21;102625.96;1766775;80;20998;-58
2022/03/20 01:57:09;;;;;;;19.37;12.33;;;;;;;-1.21;87.32;102629.80;1754021;80;20954;-58
2022/03/20 01:59:36;;;;;;;22.20;13.32;;;;;;;-1.17;87.48;102624.03;1752667;79;21089;-58
2022/03/20 02:02:05;;;;;;;27.60;14.38;;;;;;;-1.14;87.41;102631.00;1745588;81;26152;-58
2022/03/20 02:04:35;;;;;;;14.53;11.60;;;;;;;-1.11;87.39;102632.42;1763329;79;21144;-58
2022/03/20 02:07:04;;;;;;;17.30;11.88;;;;;;;-1.09;87.24;102623.50;1753773;81;21005;-58
2022/03/20 02:09:31;;;;;;;22.80;13.35;;;;;;;-1.10;87.30;102617.50;1752381;80;20946;-58
2022/03/20 02:11:59;;;;;;;;;;;;;;;-1.11;87.31;102614.47;1746126;80;20961;-58
2022/03/20 02:14:26;;;;;;;;;;;;;;;-1.10;87.42;102614.06;1772080;80;20103;-58
2022/03/20 02:16:53;;;;;;;;;;;;;;;-1.10;87.46;102612.37;1771958;80;22379;-58
2022/03/20 02:19:19;;;;;;;20.72;12.90;;;;;;;-1.09;87.49;102611.95;1764361;80;20741;-58
2022/03/20 02:21:48;;;;;;;16.10;13.05;;;;;;;-1.13;87.42;102610.53;1740278;79;20989;-58
2022/03/20 02:24:41;;;;;;;16.50;13.20;;;;;;;-1.18;87.35;102605.59;1756026;81;21049;-58
2022/03/20 02:27:16;;;;;;;17.45;13.88;;;;;;;-1.22;87.29;102604.98;1768188;79;20918;-58
2022/03/20 02:29:49;;;;;;;19.55;13.70;;;;;;;-1.26;87.37;102608.61;1760202;81;21545;-58
2022/03/20 02:32:19;;;;;;;17.42;12.68;;;;;;;-1.29;87.41;102608.05;1744106;80;21307;-58
2022/03/20 02:34:49;;;;;;;18.95;14.38;;;;;;;-1.31;87.37;102601.12;1753445;80;21070;-58
2022/03/20 02:37:21;;;;;;;16.75;13.62;;;;;;;-1.37;87.39;102601.30;1742717;80;20958;-58
2022/03/20 02:39:51;;;;;;;19.20;13.45;;;;;;;-1.41;87.43;102599.80;1755419;80;21600;-58
2022/03/20 02:42:17;;;;;;;18.25;13.25;;;;;;;-1.44;87.47;102597.09;1742394;80;21899;-58
2022/03/20 02:45:00;;;;;;;16.03;11.83;;;;;;;-1.47;87.43;102607.20;1741104;81;21014;-58
2022/03/20 02:47:33;;;;;;;18.65;13.78;;;;;;;-1.53;87.35;102600.50;1741973;81;21295;-58
2022/03/20 02:50:20;;;;;;;19.05;13.00;;;;;;;-1.63;87.35;102596.19;1760156;81;21028;-58
2022/03/20 02:52:52;;;;;;;19.82;13.85;;;;;;;-1.66;87.44;102602.86;1776678;80;20995;-58
2022/03/20 02:55:28;;;;;;;19.67;14.13;;;;;;;-1.70;87.48;102606.96;1746314;80;21123;-58
2022/03/20 02:57:58;;;;;;;19.40;13.72;;;;;;;-1.72;87.52;102597.03;1786892;80;21602;-59
2022/03/20 03:00:28;;;;;;;23.55;16.85;;;;;;;-1.74;87.56;102597.34;1747982;80;21029;-58
2022/03/20 03:02:57;;;;;;;19.20;13.53;;;;;;;-1.74;87.64;102598.63;1787555;80;21048;-59
2022/03/20 03:05:30;;;;;;;25.17;16.48;;;;;;;-1.74;87.68;102594.78;1762096;81;20966;-59
2022/03/20 03:10:56;;;;;;;23.83;14.60;;;;;;;-1.78;87.58;102604.42;1766281;79;20957;-58
2022/03/20 03:13:30;;;;;;;23.85;17.23;;;;;;;-1.78;87.59;102589.46;1735215;81;21566;-59
2022/03/20 03:16:00;;;;;;;21.57;15.68;;;;;;;-1.83;87.51;102591.78;1770132;80;20987;-59
2022/03/20 03:18:26;;;;;;;21.27;14.53;;;;;;;-1.86;87.45;102596.76;1760613;79;21026;-58
2022/03/20 03:20:53;;;;;;;24.07;15.03;;;;;;;-1.91;87.42;102588.84;1758124;81;21484;-59
2022/03/20 03:23:20;;;;;;;22.70;15.93;;;;;;;-1.97;87.36;102578.70;1751105;79;21052;-59
2022/03/20 03:25:48;;;;;;;24.07;15.25;;;;;;;-2.03;87.38;102587.83;1761045;79;21032;-59
2022/03/20 03:28:15;;;;;;;22.45;15.50;;;;;;;-2.06;87.41;102585.13;1758673;81;21045;-59
2022/03/20 03:30:47;;;;;;;24.72;16.32;;;;;;;-2.12;87.35;102586.10;1743878;81;20990;-59
2022/03/20 03:33:21;;;;;;;23.42;16.17;;;;;;;-2.17;87.40;102582.42;1761601;80;21416;-58
2022/03/20 03:35:54;;;;;;;26.35;16.77;;;;;;;-2.20;87.43;102592.52;1747881;80;20958;-58
2022/03/20 03:38:26;;;;;;;22.32;15.65;;;;;;;-2.27;87.42;102586.59;1767293;80;21017;-58
2022/03/20 03:40:55;;;;;;;24.85;17.15;;;;;;;-2.31;87.44;102585.97;1753233;81;20898;-58
2022/03/20 03:43:21;;;;;;;27.52;16.90;;;;;;;-2.36;87.48;102589.97;1768914;79;20965;-59
2022/03/20 03:45:49;;;;;;;23.95;16.95;;;;;;;-2.40;87.54;102590.62;1746297;81;21989;-58
2022/03/20 03:48:19;;;;;;;25.92;16.30;;;;;;;-2.40;87.67;102580.39;1770499;78;21613;-59
2022/03/20 03:50:48;;;;;;;26.87;16.93;;;;;;;-2.43;87.57;102582.80;1747746;81;21046;-59
2022/03/20 03:53:15;;;;;;;30.00;18.12;;;;;;;-2.48;87.57;102585.97;1757141;80;21035;-59
2022/03/20 03:55:43;;;;;;;23.95;17.48;;;;;;;-2.49;87.57;102585.91;1756598;80;21095;-58
2022/03/20 03:58:12;;;;;;;27.10;17.40;;;;;;;-2.53;87.55;102582.30;1722923;81;21101;-59
2022/03/20 04:00:44;;;;;;;27.30;16.93;;;;;;;-2.53;87.69;102587.41;1717972;82;21117;-59
2022/03/20 04:03:09;;;;;;;24.35;15.98;;;;;;;-2.58;87.55;102588.84;1723463;80;20990;-59
2022/03/20 04:05:36;;;;;;;23.67;16.87;;;;;;;-2.65;87.57;102586.78;1743772;80;21553;-58
2022/03/20 04:08:08;;;;;;;22.65;16.42;;;;;;;-2.69;87.60;102595.08;1724352;82;21017;-59
2022/03/20 04:10:35;;;;;;;25.82;16.35;;;;;;;-2.72;87.63;102587.24;1735473;80;21186;-58
2022/03/20 04:13:04;;;;;;;27.82;17.75;;;;;;;-2.76;87.56;102587.89;1718460;82;20907;-58
2022/03/20 04:15:31;;;;;;;32.60;17.92;;;;;;;-2.76;87.75;102591.73;1737570;80;21537;-59
2022/03/20 04:18:00;;;;;;;33.08;19.67;;;;;;;-2.75;87.84;102589.64;1741391;80;21564;-59
2022/03/20 04:20:27;;;;;;;32.67;18.85;;;;;;;-2.80;87.65;102587.23;1725348;82;21500;-58
2022/03/20 04:25:41;;;;;;;25.57;17.10;;;;;;;-2.90;87.72;102595.23;1736406;81;21102;-58
2022/03/20 04:28:09;;;;;;;32.20;18.37;;;;;;;-2.89;87.71;102589.31;1731765;81;20919;-60
2022/03/20 04:30:36;;;;;;;26.23;17.65;;;;;;;-2.98;87.53;102596.97;1730771;81;21027;-58
2022/03/20 04:33:03;;;;;;;32.58;19.30;;;;;;;-3.02;87.60;102598.89;1735260;81;21082;-58
2022/03/20 04:35:30;;;;;;;38.80;19.32;;;;;;;-3.00;87.81;102592.16;1729967;80;21470;-58
2022/03/20 04:37:57;;;;;;;30.75;19.52;;;;;;;-2.96;87.88;102595.38;1726397;80;21046;-59
2022/03/20 04:40:23;;;;;;;29.72;18.77;;;;;;;-2.97;87.84;102598.75;1733211;81;21006;-59
2022/03/20 04:42:50;;;;;;;26.63;17.93;;;;;;;-2.98;87.78;102602.08;1731102;81;21060;-59
2022/03/20 04:45:17;;;;;;;30.05;18.25;;;;;;;-2.97;87.77;102601.30;1741162;80;21055;-58
2022/03/20 04:58:46;;;;;;;28.75;18.73;;;;;;;-3.09;87.51;102598.06;1725190;81;21017;-60
2022/03/20 05:01:13;;;;;;;24.18;16.67;;;;;;;-3.09;87.67;102601.89;1726131;81;21194;-60
2022/03/20 05:03:40;;;;;;;27.60;18.00;;;;;;;-2.99;87.93;102604.17;1739617;80;21624;-57
2022/03/20 05:06:09;;;;;;;24.40;15.00;;;;;;;-2.85;87.86;102600.20;1718051;82;21003;-58
2022/03/20 05:08:39;;;;;;;24.82;16.00;;;;;;;-2.64;87.89;102595.33;1724012;82;21563;-58
2022/03/20 05:13:51;;;;;;;21.73;14.23;;;;;;;-2.07;87.83;102594.90;1719924;82;22306;-59
2022/03/20 05:16:19;;;;;;;19.17;13.62;;;;;;;-1.74;87.48;102589.66;1745534;80;21067;-59
2022/03/20 05:18:46;;;;;;;16.85;13.15;;;;;;;-1.44;87.26;102591.96;1725467;82;21778;-59
2022/03/20 05:21:12;;;;;;;18.12;13.35;;;;;;;-1.14;87.04;102593.81;1738579;80;21036;-58
2022/03/20 05:23:41;;;;;;;17.30;13.87;;;;;;;-0.87;86.52;102600.59;1735970;81;20986;-59
2022/03/20 05:26:08;;;;;;;20.70;15.08;;;;;;;-0.64;86.14;102600.75;1732490;81;21129;-59
2022/03/20 05:28:35;;;;;;;20.03;13.93;;;;;;;-0.39;86.14;102606.19;1731016;80;21001;-59
2022/03/20 05:31:03;;;;;;;22.50;15.78;;;;;;;0.03;86.29;102606.27;1739883;80;20989;-59
2022/03/20 05:33:32;;;;;;;18.23;13.55;;;;;;;0.50;86.20;102603.46;1723638;81;20997;-59
2022/03/20 05:36:00;;;;;;;17.30;12.75;;;;;;;1.05;86.36;102595.74;1749842;80;21052;-59
2022/03/20 05:38:26;;;;;;;17.35;13.35;;;;;;;1.47;85.64;102599.02;1720605;82;21564;-59
2022/03/20 05:41:43;;;;;;;23.57;13.65;;;;;;;1.79;84.97;102600.56;1739668;80;21467;-59
2022/03/20 05:43:22;;;;;;;17.07;12.75;;;;;;;2.07;84.73;102595.06;1728109;81;21057;-59
2022/03/20 05:45:50;;;;;;;15.23;12.95;;;;;;;2.35;84.53;102605.48;1741749;80;21001;-59
2022/03/20 05:48:18;;;;;;;18.25;13.50;;;;;;;2.61;84.27;102600.28;1740092;81;20958;-60
2022/03/20 05:50:45;;;;;;;16.75;12.63;;;;;;;2.85;84.11;102608.76;1759940;80;21124;-60
2022/03/20 05:53:12;;;;;;;16.03;12.47;;;;;;;3.14;84.13;102606.20;1759824;80;20986;-59
2022/03/20 05:58:21;;;;;;;11.65;10.28;;;;;;;3.77;83.64;102608.83;1667150;85;21664;-59
2022/03/20 06:00:51;;;;;;;12.07;10.60;;;;;;;4.05;83.37;102609.55;1667665;86;21105;-59
2022/03/20 06:03:19;;;;;;;14.70;10.43;;;;;;;4.28;83.07;102609.26;1622266;86;22038;-59
2022/03/20 06:05:47;;;;;;;14.58;10.95;;;;;;;4.43;82.74;102614.83;1667694;86;21045;-58
2022/03/20 06:08:13;;;;;;;15.50;11.30;;;;;;;4.58;83.06;102616.47;1666679;86;21614;-59
2022/03/20 06:10:43;;;;;;;12.82;10.98;;;;;;;4.78;83.58;102617.36;1667254;86;21037;-59
2022/03/20 06:13:10;;;;;;;14.60;11.75;;;;;;;5.10;83.81;102608.59;1662132;86;21118;-58
2022/03/20 06:15:37;;;;;;;11.55;10.38;;;;;;;5.10;82.46;102624.14;1665685;86;23583;-59
2022/03/20 06:18:05;;;;;;;12.13;10.93;;;;;;;5.09;82.36;102614.59;1657344;86;21073;-59
2022/03/20 06:20:35;;;;;;;13.45;11.33;;;;;;;5.16;82.34;102616.49;1664691;84;21046;-59
2022/03/20 06:23:03;;;;;;;13.10;11.22;;;;;;;5.28;82.25;102620.19;1661954;85;21022;-59
2022/03/20 06:25:30;;;;;;;13.28;11.97;;;;;;;5.36;82.17;102623.81;1703059;84;21069;-59
2022/03/20 06:27:59;;;;;;;13.98;11.83;;;;;;;5.48;82.47;102617.56;1701580;84;21455;-59
2022/03/20 06:30:25;;;;;;;15.45;13.35;;;;;;;5.76;82.39;102625.45;1698229;84;21192;-59
2022/03/20 06:32:52;;;;;;;16.67;13.43;;;;;;;5.90;81.87;102623.13;1709942;83;28291;-58
2022/03/20 06:35:19;;;;;;;13.83;12.15;;;;;;;5.98;81.85;102628.06;1755570;80;20990;-59
2022/03/20 06:37:50;;;;;;;14.10;11.35;;;;;;;6.01;81.89;102626.82;1760129;80;21100;-59
2022/03/20 06:40:17;;;;;;;14.38;12.03;;;;;;;6.10;81.89;102627.41;1772720;80;21133;-59
2022/03/20 06:42:46;;;;;;;13.78;12.25;;;;;;;6.19;81.99;102626.69;1748084;80;20910;-59
2022/03/20 06:45:15;;;;;;;20.57;12.80;;;;;;;6.32;81.93;102628.65;1778047;80;21053;-59
2022/03/20 06:47:43;;;;;;;17.48;13.13;;;;;;;6.43;82.02;102631.00;1759141;81;21025;-59
2022/03/20 06:50:12;;;;;;;14.80;12.63;;;;;;;6.62;82.10;102638.66;1764771;80;20993;-59
2022/03/20 06:52:40;;;;;;;23.50;21.00;;;;;;;6.80;81.64;102638.48;1763794;81;21824;-59
2022/03/20 06:55:12;;;;;;;51.30;46.20;;;;;;;6.76;81.69;102637.58;1750752;81;20954;-60
2022/03/20 06:57:45;;;;;;;16.15;14.55;;;;;;;6.78;82.16;102635.89;1760426;81;20966;-59
2022/03/20 07:00:16;;;;;;;17.57;14.63;;;;;;;6.82;82.09;102638.96;1769036;80;20954;-59
2022/03/20 07:02:45;;;;;;;18.62;14.58;;;;;;;6.74;82.00;102647.06;1745236;80;21064;-60
2022/03/20 07:05:14;;;;;;;20.12;15.98;;;;;;;6.74;82.59;102641.87;1776751;80;21944;-59
2022/03/20 07:07:41;;;;;;;20.25;15.80;;;;;;;6.76;83.00;102646.67;1752533;80;20930;-59
2022/03/20 07:10:09;;;;;;;28.60;18.15;;;;;;;6.93;83.13;102650.38;1770153;80;21088;-59
2022/03/20 07:12:35;;;;;;;24.05;20.65;;;;;;;6.81;82.71;102646.32;1765829;80;21057;-59
2022/03/20 07:15:02;;;;;;;21.85;17.27;;;;;;;6.70;83.22;102647.88;1784469;79;20938;-59
2022/03/20 07:17:30;;;;;;;18.40;16.30;;;;;;;6.44;82.87;102653.53;1768418;80;24899;-60
2022/03/20 07:19:58;;;;;;;19.45;15.85;;;;;;;6.09;83.39;102662.41;1765427;80;20966;-59
2022/03/20 07:22:26;;;;;;;19.42;14.93;;;;;;;5.56;83.53;102652.29;1734182;81;21569;-59
2022/03/20 07:24:53;;;;;;;17.65;14.23;;;;;;;5.56;83.53;102652.29;1765572;80;20962;-58
2022/03/20 07:30:07;;;;;;;19.15;14.78;;;;;;;5.20;83.88;102658.00;1755911;80;21044;-59
2022/03/20 07:32:34;;;;;;;24.90;17.02;;;;;;;5.08;83.98;102653.43;1771808;80;20986;-59
2022/03/20 07:35:01;;;;;;;29.82;19.52;;;;;;;5.02;84.13;102654.17;1782801;79;21007;-58
2022/03/20 07:37:29;;;;;;;34.13;20.75;;;;;;;5.07;84.35;102657.74;1764701;80;20962;-58
2022/03/20 07:39:55;;;;;;;;;;;;;;;5.13;84.19;102659.17;1765357;80;20985;-59
2022/03/20 07:42:23;;;;;;;25.27;17.02;;;;;;;5.20;83.98;102658.00;1741519;81;21514;-59
2022/03/20 07:44:50;;;;;;;27.22;17.77;;;;;;;5.27;83.83;102662.48;1759790;80;21064;-58
2022/03/20 07:47:21;;;;;;;21.57;16.25;;;;;;;5.34;83.83;102656.58;1742177;80;28270;-58
2022/03/20 07:49:50;;;;;;;23.12;16.50;;;;;;;5.42;83.47;102660.20;1770676;80;21001;-59
2022/03/20 07:52:22;;;;;;;23.62;15.30;;;;;;;5.53;83.35;102660.44;1739964;80;20958;-59
2022/03/20 07:54:49;;;;;;;27.15;17.45;;;;;;;5.62;83.30;102658.02;1765966;80;21142;-59
2022/03/20 07:57:16;;;;;;;21.52;16.00;;;;;;;5.68;82.70;102649.48;1752999;81;21064;-59
2022/03/20 07:59:44;;;;;;;23.98;15.35;;;;;;;5.78;82.88;102661.80;1786499;80;20939;-59
2022/03/20 08:02:11;;;;;;;24.67;16.23;;;;;;;5.91;82.66;102657.70;1755152;80;21071;-58
2022/03/20 08:04:40;;;;;;;21.15;14.98;;;;;;;5.98;82.41;102660.48;1783515;80;21005;-58
2022/03/20 08:07:07;;;;;;;25.25;15.55;;;;;;;6.04;82.22;102655.41;1755397;80;21156;-58
2022/03/20 08:09:33;;;;;;;25.20;14.75;;;;;;;6.14;82.25;102658.19;1787067;80;21099;-59
2022/03/20 08:12:01;;;;;;;18.87;13.45;;;;;;;6.27;82.05;102660.13;1752032;81;21018;-58
2022/03/20 08:14:28;;;;;;;18.73;13.83;;;;;;;6.36;81.85;102658.11;1778452;80;20918;-59
2022/03/20 08:16:55;;;;;;;20.48;13.28;;;;;;;6.46;81.16;102657.00;1736079;81;21629;-59
2022/03/20 08:19:23;;;;;;;20.08;14.35;;;;;;;6.52;80.20;102655.36;1783850;79;22328;-58
2022/03/20 08:21:51;;;;;;;24.50;16.10;;;;;;;6.52;79.56;102655.36;1742622;80;21021;-59
2022/03/20 08:24:18;;;;;;;23.02;14.43;;;;;;;6.59;79.69;102658.09;1756973;81;21538;-59
2022/03/20 08:26:46;;;;;;;19.07;14.03;;;;;;;6.61;78.92;102659.39;1758016;80;21499;-58
2022/03/20 08:29:14;;;;;;;16.17;12.53;;;;;;;6.68;78.73;102666.45;1751460;81;21033;-58
2022/03/20 08:31:47;;;;;;;16.07;12.40;;;;;;;6.71;78.13;102666.06;1768130;80;21039;-58
2022/03/20 08:34:17;;;;;;;20.77;13.68;;;;;;;6.77;77.95;102663.98;1758797;81;21547;-59
2022/03/20 08:36:44;;;;;;;17.10;12.47;;;;;;;6.86;77.22;102660.25;1788323;79;21565;-58
2022/03/20 08:39:14;;;;;;;17.42;12.95;;;;;;;6.88;76.89;102661.13;1788718;79;21124;-58
2022/03/20 08:41:43;;;;;;;18.05;13.20;;;;;;;6.91;76.34;102666.36;1757802;81;21116;-60
2022/03/20 08:44:09;;;;;;;20.57;13.25;;;;;;;6.90;76.14;102659.86;1788363;80;21077;-59
2022/03/20 08:46:37;;;;;;;22.37;14.03;;;;;;;6.92;75.59;102657.73;1787184;80;21056;-58
2022/03/20 08:49:06;;;;;;;17.67;13.30;;;;;;;6.93;75.25;102659.47;1787404;80;20939;-59
2022/03/20 08:51:35;;;;;;;19.25;13.20;;;;;;;6.98;75.47;102659.98;1787079;80;20990;-59
2022/03/20 08:54:09;;;;;;;16.82;12.35;;;;;;;7.03;74.47;102654.41;1760448;81;21542;-59
2022/03/20 08:56:36;;;;;;;19.45;13.18;;;;;;;7.05;73.65;102657.91;1750452;80;21339;-59
2022/03/20 08:59:02;;;;;;;16.73;11.77;;;;;;;7.07;73.19;102662.27;1787550;80;20993;-59
2022/03/20 09:01:30;;;;;;;21.73;12.53;;;;;;;7.12;72.49;102657.16;1787239;80;22174;-59
2022/03/20 09:03:57;;;;;;;17.57;11.70;;;;;;;7.13;72.39;102651.96;1757122;80;21617;-59
2022/03/20 09:06:24;;;;;;;15.72;10.28;;;;;;;7.15;71.39;102661.09;1762827;80;21080;-59
2022/03/20 16:46:00;;;;;;;18.70;11.55;;;;;;;4.34;42.86;102283.48;1864334;74;22017;-56
2022/03/20 16:48:28;;;;;;;19.40;10.72;;;;;;;4.18;42.90;102285.78;1840589;76;21039;-59
2022/03/20 16:51:02;;;;;;;16.80;11.08;;;;;;;4.08;42.92;102283.84;1847612;75;21057;-58
2022/03/20 16:53:31;;;;;;;18.15;11.95;;;;;;;4.00;42.94;102286.69;1842748;75;21423;-58
2022/03/20 16:56:00;;;;;;;19.82;12.00;;;;;;;3.90;42.97;102286.06;1825936;76;20997;-58
2022/03/20 16:58:30;;;;;;;20.77;11.88;;;;;;;3.86;42.99;102285.53;1827781;75;20890;-58
2022/03/20 17:00:59;;;;;;;21.95;12.47;;;;;;;3.79;43.01;102282.81;1838440;75;20916;-58
2022/03/20 17:03:26;;;;;;;22.58;12.82;;;;;;;3.71;43.02;102284.36;1844149;75;21919;-58
2022/03/20 17:05:53;;;;;;;18.00;11.55;;;;;;;3.64;43.07;102279.91;1851149;75;20973;-58
2022/03/20 17:08:20;;;;;;;16.95;12.65;;;;;;;3.58;43.10;102292.67;1838944;76;21918;-58
2022/03/20 17:10:47;;;;;;;23.55;13.83;;;;;;;3.49;43.19;102289.88;1842395;76;20938;-58
2022/03/20 17:13:14;;;;;;;21.00;13.65;;;;;;;3.45;43.23;102291.95;1857116;75;22944;-59
2022/03/20 17:15:42;;;;;;;;;;;;;;;3.39;43.28;102295.66;1850478;75;21425;-58
2022/03/20 17:19:54;;;;;;;24.23;13.60;;;;;;;3.27;43.37;102289.38;1824968;77;22269;-58
2022/03/20 17:22:21;;;;;;;19.25;12.68;;;;;;;3.19;43.45;102292.19;1790721;80;21017;-58
2022/03/20 17:24:50;;;;;;;20.62;12.60;;;;;;;3.15;43.48;102294.25;1753080;79;21121;-59
2022/03/20 17:27:17;;;;;;;20.60;13.53;;;;;;;3.09;43.55;102300.56;1785175;80;21044;-58
2022/03/20 17:29:45;;;;;;;21.27;13.20;;;;;;;3.01;43.56;102299.50;1757916;80;21061;-57
2022/03/20 17:32:12;;;;;;;19.50;13.55;;;;;;;2.94;43.64;102305.33;1784902;79;20997;-59
2022/03/20 17:34:39;;;;;;;21.50;14.03;;;;;;;2.86;43.69;102309.89;1758432;80;21005;-59
2022/03/20 17:37:06;;;;;;;28.25;17.37;;;;;;;2.80;43.77;102307.16;1789416;78;21759;-62
2022/03/20 17:39:33;;;;;;;23.25;15.43;;;;;;;2.73;43.80;102312.11;1757056;79;20986;-58
2022/03/20 17:42:01;;;;;;;29.13;20.00;;;;;;;2.64;43.87;102308.88;1775268;80;21029;-58
2022/03/20 17:44:28;;;;;;;31.68;20.15;;;;;;;2.54;43.92;102306.87;1752259;80;21001;-58
2022/03/20 17:46:55;;;;;;;38.90;18.40;;;;;;;2.50;44.00;102308.92;1794438;79;21719;-58
2022/03/20 17:49:24;;;;;;;36.83;17.27;;;;;;;2.40;44.06;102302.62;1765616;80;21565;-60
2022/03/20 17:51:56;;;;;;;32.93;16.85;;;;;;;2.29;44.14;102308.77;1779257;78;21520;-58
2022/03/20 17:54:20;;;;;;;30.52;16.32;;;;;;;2.18;44.35;102307.17;1747441;81;21016;-57
2022/03/20 17:56:47;;;;;;;29.70;16.77;;;;;;;2.05;44.44;102314.53;1780355;80;21550;-58
2022/03/20 17:59:34;;;;;;;30.68;17.60;;;;;;;1.92;44.57;102305.13;1747873;80;20993;-58
2022/03/20 18:08:21;;;;;;;27.67;15.68;;;;;;;1.53;45.12;102303.09;1842174;77;21297;-57
2022/03/20 18:10:51;;;;;;;25.20;14.83;;;;;;;1.42;45.20;102307.03;1835978;77;20899;-57
2022/03/20 18:13:27;;;;;;;27.10;16.52;;;;;;;1.34;45.27;102306.81;1829654;76;21040;-58
2022/03/20 18:15:52;;;;;;;37.80;22.30;;;;;;;1.27;45.34;102305.28;1837204;77;21064;-58
2022/03/20 18:18:23;;;;;;;33.57;19.93;;;;;;;1.04;45.38;102305.82;1843607;77;20992;-58
2022/03/20 18:20:50;;;;;;;29.10;18.07;;;;;;;1.04;45.38;102305.82;1784034;79;21466;-58
2022/03/20 18:23:18;;;;;;;29.63;18.62;;;;;;;0.95;45.69;102301.21;1779326;78;20974;-58
2022/03/20 18:25:48;;;;;;;29.10;19.02;;;;;;;0.87;45.85;102297.54;1801751;78;20982;-58
2022/03/20 18:28:16;;;;;;;27.45;18.92;;;;;;;0.78;46.03;102300.65;1791444;79;21111;-58
2022/03/20 18:30:55;;;;;;;29.63;18.67;;;;;;;0.71;46.20;102307.70;1781586;78;20950;-58
2022/03/20 18:33:18;;;;;;;32.30;19.48;;;;;;;0.65;46.35;102308.37;1793148;78;22163;-61
2022/03/20 18:35:45;;;;;;;32.80;20.65;;;;;;;0.59;46.49;102308.16;1790697;78;21575;-59
2022/03/20 18:38:13;;;;;;;32.35;19.87;;;;;;;0.56;46.60;102306.78;1792290;78;21579;-59
2022/03/20 18:40:40;;;;;;;31.27;20.08;;;;;;;0.53;46.87;102306.64;1801449;78;21617;-58
2022/03/20 18:43:08;;;;;;;34.30;21.30;;;;;;;0.52;47.19;102301.45;1802076;78;20977;-58
2022/03/20 18:45:35;;;;;;;41.92;20.75;;;;;;;0.50;47.29;102300.11;1812092;78;21905;-58
2022/03/20 18:48:04;;;;;;;35.63;23.22;;;;;;;0.47;47.38;102302.57;1789059;80;21096;-58
2022/03/20 18:50:32;;;;;;;33.10;21.45;;;;;;;0.41;47.39;102298.50;1780663;79;21092;-59
2022/03/20 18:52:59;;;;;;;34.92;22.90;;;;;;;0.43;47.70;102308.44;1809393;78;20997;-58
2022/03/20 18:55:26;;;;;;;34.55;24.02;;;;;;;0.41;47.79;102297.22;1789186;79;20916;-59
2022/03/20 18:57:57;;;;;;;44.10;24.33;;;;;;;0.38;47.78;102298.40;1791808;80;21099;-58
2022/03/20 19:00:22;;;;;;;37.20;23.32;;;;;;;0.32;47.93;102295.62;1763418;79;21074;-58
2022/03/20 19:02:49;;;;;;;40.12;23.18;;;;;;;0.28;48.05;102296.30;1784432;79;21084;-58
2022/03/20 19:05:17;;;;;;;34.40;23.13;;;;;;;0.21;48.25;102296.09;1776951;79;21063;-58
2022/03/20 19:07:48;;;;;;;43.20;27.20;;;;;;;0.15;48.33;102298.45;1769251;79;21360;-58
2022/03/20 19:10:18;;;;;;;47.20;29.52;;;;;;;0.10;48.51;102293.54;1777329;79;21091;-58
2022/03/20 19:12:51;;;;;;;43.48;26.42;;;;;;;0.02;48.62;102297.52;1778986;79;20985;-58
2022/03/20 19:15:23;;;;;;;37.83;24.57;;;;;;;-0.05;48.73;102294.27;1787999;79;20984;-58
2022/03/20 19:17:52;;;;;;;61.00;42.23;;;;;;;-0.06;48.99;102301.50;1775157;79;20998;-58
2022/03/20 19:20:21;;;;;;;55.78;36.35;;;;;;;-0.08;49.11;102296.73;1770795;79;21091;-58
2022/03/20 19:22:48;;;;;;;46.18;29.25;;;;;;;-0.11;49.26;102295.30;1778740;79;21813;-58
2022/03/20 19:25:16;;;;;;;42.45;26.82;;;;;;;-0.15;49.40;102290.47;1777758;79;21489;-58
2022/03/20 19:27:45;;;;;;;46.35;30.27;;;;;;;-0.16;49.50;102289.15;1787209;79;20962;-58
2022/03/20 19:30:20;;;;;;;60.30;34.73;;;;;;;-0.17;49.61;102293.80;1785345;79;20995;-58
2022/03/20 19:32:47;;;;;;;56.08;33.53;;;;;;;-0.23;49.67;102295.31;1786289;79;21566;-58